Time;durP1;ratioP1;P1;durP2;ratioP2;P2;SDS_P1;SDS_P2;PMS_P1;PMS_P2;Temp;Humidity;BMP_temperature;BMP_pressure;BME280_temperature;BME280_humidity;BME280_pressure;Samples;Min_cycle;Max_cycle;Signal;HPM_P1;HPM_P2
2022/08/21 00:01:49;;;;;;;;;;;13.90;63.50;;;;;;6154530;23;19919;-72
2022/08/21 00:04:16;;;;;;;;;;;13.80;62.80;;;;;;6154342;23;19921;-72
2022/08/21 00:06:43;;;;;;;;;;;13.90;63.10;;;;;;6154399;23;19915;-72
2022/08/21 00:09:09;;;;;;;;;;;14.00;63.80;;;;;;6154188;23;19932;-72
2022/08/21 00:11:36;;;;;;;;;;;14.00;63.50;;;;;;6154285;23;19912;-72
2022/08/21 00:14:03;;;;;;;;;;;14.10;63.90;;;;;;6154919;23;19939;-71
2022/08/21 00:16:30;;;;;;;;;;;14.10;63.70;;;;;;6154400;23;19905;-72
2022/08/21 00:18:56;;;;;;;;;;;14.10;62.80;;;;;;6154799;23;19952;-72
2022/08/21 00:21:24;;;;;;;;;;;14.10;61.80;;;;;;6154851;23;19915;-71
2022/08/21 00:23:51;;;;;;;;;;;14.20;62.50;;;;;;6154312;23;19904;-71
2022/08/21 00:26:18;;;;;;;;;;;14.20;61.30;;;;;;6154505;23;20014;-71
2022/08/21 00:28:45;;;;;;;;;;;14.20;61.60;;;;;;6128612;23;19909;-71
2022/08/21 00:31:12;;;;;;;;;;;14.20;61.00;;;;;;6128748;23;19916;-72
2022/08/21 00:33:39;;;;;;;;;;;14.20;61.50;;;;;;6154489;23;19915;-72
2022/08/21 00:36:05;;;;;;;;;;;14.30;61.80;;;;;;6127808;23;19928;-71
2022/08/21 00:38:32;;;;;;;;;;;14.30;61.80;;;;;;6154204;23;20262;-72
2022/08/21 00:40:59;;;;;;;;;;;14.30;61.80;;;;;;6154457;23;19912;-72
2022/08/21 00:43:27;;;;;;;;;;;14.40;61.70;;;;;;6154156;23;20319;-72
2022/08/21 00:45:54;;;;;;;;;;;14.40;61.60;;;;;;6153973;23;19983;-72
2022/08/21 00:48:21;;;;;;;;;;;14.50;60.80;;;;;;6154378;23;19952;-72
2022/08/21 00:50:57;;;;;;;;;;;14.40;59.50;;;;;;6154794;23;19905;-72
2022/08/21 00:53:24;;;;;;;;;;;14.50;59.80;;;;;;6156108;23;19908;-72
2022/08/21 00:55:51;;;;;;;;;;;14.50;60.10;;;;;;6130226;23;19909;-72
2022/08/21 00:58:18;;;;;;;;;;;14.60;59.00;;;;;;6155077;23;19996;-72
2022/08/21 01:00:45;;;;;;;;;;;14.70;59.10;;;;;;6155757;23;20386;-72
2022/08/21 01:03:13;;;;;;;;;;;14.70;58.90;;;;;;6156466;23;19916;-72
2022/08/21 01:05:40;;;;;;;;;;;14.70;58.70;;;;;;6156255;23;19921;-72
2022/08/21 01:08:07;;;;;;;;;;;14.70;59.10;;;;;;6130135;23;19904;-71
2022/08/21 01:10:34;;;;;;;;;;;14.80;59.10;;;;;;6130637;23;19919;-72
2022/08/21 01:13:01;;;;;;;;;;;14.80;58.80;;;;;;6155946;23;19988;-72
2022/08/21 01:15:31;;;;;;;;;;;14.80;58.60;;;;;;6155688;23;20328;-71
2022/08/21 01:17:57;;;;;;;;;;;14.90;57.80;;;;;;6130064;23;20039;-72
2022/08/21 01:20:24;;;;;;;;;;;14.80;57.80;;;;;;6155764;23;19904;-71
2022/08/21 01:22:51;;;;;;;;;;;14.90;58.00;;;;;;6155956;23;19905;-71
2022/08/21 01:25:19;;;;;;;;;;;14.90;57.10;;;;;;6155280;23;19913;-72
2022/08/21 01:27:46;;;;;;;;;;;14.90;56.90;;;;;;6155588;23;19979;-72
2022/08/21 01:30:15;;;;;;;;;;;14.90;56.20;;;;;;6155931;23;19905;-71
2022/08/21 01:32:42;;;;;;;;;;;14.90;56.00;;;;;;6155956;23;19905;-72
2022/08/21 01:35:09;;;;;;;;;;;15.00;56.50;;;;;;6155752;23;20209;-71
2022/08/21 01:37:35;;;;;;;;;;;15.00;57.40;;;;;;6129781;23;19913;-72
2022/08/21 01:40:02;;;;;;;;;;;15.00;56.70;;;;;;6130097;23;19936;-72
2022/08/21 01:42:29;;;;;;;;;;;15.00;56.40;;;;;;6130175;23;20198;-72
2022/08/21 01:44:56;;;;;;;;;;;15.00;56.70;;;;;;6155639;23;19935;-72
2022/08/21 01:47:22;;;;;;;;;;;15.00;56.70;;;;;;6155566;23;19908;-72
2022/08/21 01:49:49;;;;;;;;;;;15.00;57.00;;;;;;6155403;23;19956;-72
2022/08/21 01:52:16;;;;;;;;;;;15.00;57.00;;;;;;6155539;23;19920;-72
2022/08/21 01:54:42;;;;;;;;;;;15.10;56.40;;;;;;6155662;23;20276;-72
2022/08/21 01:57:09;;;;;;;;;;;15.10;55.90;;;;;;6155825;23;19967;-71
2022/08/21 01:59:36;;;;;;;;;;;15.10;56.10;;;;;;6155620;23;19913;-72
2022/08/21 02:02:03;;;;;;;;;;;15.10;56.70;;;;;;6155369;23;19911;-72
2022/08/21 02:04:30;;;;;;;;;;;15.20;56.70;;;;;;6155010;23;19917;-72
2022/08/21 02:06:57;;;;;;;;;;;15.20;55.70;;;;;;6155906;23;19905;-72
2022/08/21 02:09:23;;;;;;;;;;;15.30;55.90;;;;;;6155677;23;19978;-72
2022/08/21 02:11:51;;;;;;;;;;;15.30;55.30;;;;;;6155478;23;19905;-72
2022/08/21 02:14:17;;;;;;;;;;;15.30;55.00;;;;;;6155180;23;19912;-72
2022/08/21 02:16:44;;;;;;;;;;;15.30;55.30;;;;;;6155005;23;19939;-72
2022/08/21 02:19:11;;;;;;;;;;;15.30;55.20;;;;;;6154932;23;19932;-72
2022/08/21 02:21:38;;;;;;;;;;;15.30;55.30;;;;;;6155185;23;20328;-72
2022/08/21 02:24:04;;;;;;;;;;;15.30;55.10;;;;;;6155143;23;20339;-72
2022/08/21 02:26:31;;;;;;;;;;;15.40;55.20;;;;;;6154952;23;19905;-72
2022/08/21 02:28:58;;;;;;;;;;;15.50;53.90;;;;;;6155309;23;19911;-72
2022/08/21 02:31:24;;;;;;;;;;;15.50;53.60;;;;;;6155184;23;19904;-72
2022/08/21 02:33:51;;;;;;;;;;;15.50;54.30;;;;;;6154927;23;19943;-72
2022/08/21 02:36:18;;;;;;;;;;;15.50;54.30;;;;;;6154701;23;19905;-72
2022/08/21 02:38:44;;;;;;;;;;;15.50;53.70;;;;;;6155742;23;19905;-71
2022/08/21 02:41:12;;;;;;;;;;;15.50;54.00;;;;;;6155160;23;19904;-72
2022/08/21 02:43:38;;;;;;;;;;;15.60;54.60;;;;;;6129275;23;19909;-72
2022/08/21 02:46:08;;;;;;;;;;;15.60;53.10;;;;;;6155684;23;19909;-72
2022/08/21 02:48:35;;;;;;;;;;;15.60;53.40;;;;;;6155201;23;19909;-72
2022/08/21 02:51:02;;;;;;;;;;;15.60;53.50;;;;;;6155275;23;19905;-71
2022/08/21 02:53:29;;;;;;;;;;;15.60;53.00;;;;;;6155261;23;19928;-71
2022/08/21 02:55:56;;;;;;;;;;;15.60;51.20;;;;;;6154058;23;19908;-72
2022/08/21 02:58:24;;;;;;;;;;;15.60;52.00;;;;;;6154816;23;19944;-71
2022/08/21 03:00:51;;;;;;;;;;;15.60;52.70;;;;;;6154766;23;20229;-72
2022/08/21 03:03:18;;;;;;;;;;;15.70;53.00;;;;;;6129476;23;19932;-72
2022/08/21 03:05:44;;;;;;;;;;;15.70;52.30;;;;;;6129080;23;19917;-72
2022/08/21 03:08:11;;;;;;;;;;;15.70;51.40;;;;;;6129287;23;20344;-72
2022/08/21 03:10:39;;;;;;;;;;;15.70;52.40;;;;;;6128831;23;19915;-72
2022/08/21 03:13:06;;;;;;;;;;;15.60;52.10;;;;;;6155601;23;19915;-72
2022/08/21 03:15:32;;;;;;;;;;;15.60;52.20;;;;;;6154627;23;19923;-72
2022/08/21 03:17:59;;;;;;;;;;;15.70;52.50;;;;;;6154863;23;19913;-72
2022/08/21 03:20:26;;;;;;;;;;;15.70;53.20;;;;;;6154911;23;19909;-72
2022/08/21 03:22:53;;;;;;;;;;;15.70;52.00;;;;;;6155103;23;20228;-72
2022/08/21 03:25:20;;;;;;;;;;;15.70;51.30;;;;;;6154831;23;19904;-72
2022/08/21 03:27:48;;;;;;;;;;;15.70;51.50;;;;;;6154908;23;19909;-72
2022/08/21 03:30:15;;;;;;;;;;;15.70;51.90;;;;;;6129641;23;19914;-72
2022/08/21 03:32:42;;;;;;;;;;;15.70;51.80;;;;;;6129083;23;19933;-72
2022/08/21 03:35:09;;;;;;;;;;;15.70;51.50;;;;;;6154817;23;19928;-72
2022/08/21 03:37:36;;;;;;;;;;;15.80;50.60;;;;;;6128833;23;19999;-72
2022/08/21 03:40:04;;;;;;;;;;;15.90;51.20;;;;;;6128807;23;19932;-72
2022/08/21 03:42:30;;;;;;;;;;;15.90;50.60;;;;;;6154428;23;19912;-72
2022/08/21 03:44:57;;;;;;;;;;;15.90;50.60;;;;;;6128979;23;19975;-72
2022/08/21 03:47:24;;;;;;;;;;;15.90;50.60;;;;;;6154546;23;19939;-72
2022/08/21 03:49:50;;;;;;;;;;;15.90;49.40;;;;;;6154562;23;20303;-72
2022/08/21 03:52:17;;;;;;;;;;;15.80;49.30;;;;;;6129170;23;20231;-72
2022/08/21 03:54:44;;;;;;;;;;;15.90;48.90;;;;;;6128988;23;20436;-72
2022/08/21 03:57:10;;;;;;;;;;;15.90;49.00;;;;;;6128868;23;19990;-72
2022/08/21 03:59:38;;;;;;;;;;;15.90;49.30;;;;;;6154661;23;19975;-72
2022/08/21 04:02:05;;;;;;;;;;;15.90;49.60;;;;;;6104554;23;20328;-72
2022/08/21 04:04:32;;;;;;;;;;;15.90;49.90;;;;;;6128543;23;19962;-72
2022/08/21 04:06:59;;;;;;;;;;;16.00;49.70;;;;;;6154695;23;19964;-72
2022/08/21 04:09:26;;;;;;;;;;;15.90;49.30;;;;;;6104172;23;19909;-72
2022/08/21 04:11:52;;;;;;;;;;;15.90;50.00;;;;;;6154799;23;20332;-72
2022/08/21 04:14:19;;;;;;;;;;;15.90;49.80;;;;;;6152672;23;19912;-69
2022/08/21 04:16:46;;;;;;;;;;;16.00;49.60;;;;;;6152394;23;20350;-70
2022/08/21 04:19:15;;;;;;;;;;;16.00;49.30;;;;;;6153867;23;20348;-69
2022/08/21 04:21:42;;;;;;;;;;;16.00;49.30;;;;;;6153486;23;19936;-70
2022/08/21 04:24:09;;;;;;;;;;;16.00;49.40;;;;;;6152281;23;19904;-69
2022/08/21 04:26:36;;;;;;;;;;;16.00;48.80;;;;;;6154263;23;19905;-69
2022/08/21 04:29:04;;;;;;;;;;;16.10;47.00;;;;;;6156213;23;19955;-69
2022/08/21 04:31:31;;;;;;;;;;;16.00;46.30;;;;;;6155753;23;20367;-69
2022/08/21 04:33:57;;;;;;;;;;;16.00;46.20;;;;;;6155540;23;19912;-69
2022/08/21 04:36:24;;;;;;;;;;;16.10;45.80;;;;;;6154576;23;19908;-70
2022/08/21 04:38:51;;;;;;;;;;;16.00;45.40;;;;;;6154727;23;19987;-69
2022/08/21 04:41:17;;;;;;;;;;;16.00;45.20;;;;;;6155883;23;19967;-69
2022/08/21 04:43:44;;;;;;;;;;;16.10;45.30;;;;;;6155527;23;19912;-69
2022/08/21 04:46:11;;;;;;;;;;;16.10;48.60;;;;;;6155427;23;19968;-69
2022/08/21 04:48:37;;;;;;;;;;;16.20;52.80;;;;;;6155359;23;19908;-70
2022/08/21 04:51:11;;;;;;;;;;;16.20;54.70;;;;;;6155045;23;19912;-64
2022/08/21 04:53:42;;;;;;;;;;;16.20;56.80;;;;;;6105669;23;19912;-66
2022/08/21 04:56:10;;;;;;;;;;;16.10;57.60;;;;;;6155668;23;19920;-66
2022/08/21 04:58:37;;;;;;;;;;;16.10;58.20;;;;;;6128813;23;19983;-69
2022/08/21 05:01:03;;;;;;;;;;;16.10;58.60;;;;;;6127918;23;19981;-69
2022/08/21 05:03:31;;;;;;;;;;;16.00;58.90;;;;;;6128532;23;19988;-69
2022/08/21 05:05:57;;;;;;;;;;;16.00;59.10;;;;;;6156243;23;19936;-67
2022/08/21 05:08:25;;;;;;;;;;;16.00;58.80;;;;;;6155650;23;20320;-67
2022/08/21 05:10:51;;;;;;;;;;;15.90;59.00;;;;;;6156085;23;20209;-66
2022/08/21 05:13:18;;;;;;;;;;;15.90;59.00;;;;;;6129842;23;19904;-67
2022/08/21 05:15:45;;;;;;;;;;;15.90;58.40;;;;;;6129704;23;20302;-67
2022/08/21 05:18:11;;;;;;;;;;;15.90;59.10;;;;;;6155277;23;20240;-67
2022/08/21 05:20:38;;;;;;;;;;;15.80;60.00;;;;;;6155499;23;19909;-67
2022/08/21 05:23:08;;;;;;;;;;;15.80;59.90;;;;;;6155527;23;19905;-67
2022/08/21 05:25:35;;;;;;;;;;;15.80;60.00;;;;;;6155169;23;19905;-67
2022/08/21 05:28:01;;;;;;;;;;;15.70;60.10;;;;;;6155953;23;19912;-67
2022/08/21 05:30:28;;;;;;;;;;;15.70;60.00;;;;;;6153537;23;19915;-70
2022/08/21 05:32:58;;;;;;;;;;;15.70;59.40;;;;;;6152755;23;20287;-70
2022/08/21 05:35:25;;;;;;;;;;;15.70;60.20;;;;;;6152171;23;19909;-70
2022/08/21 05:37:51;;;;;;;;;;;15.70;60.50;;;;;;6152374;23;19960;-69
2022/08/21 05:40:18;;;;;;;;;;;15.70;60.10;;;;;;6149736;23;19908;-69
2022/08/21 05:42:44;;;;;;;;;;;15.70;60.40;;;;;;6152096;23;19911;-71
2022/08/21 05:45:11;;;;;;;;;;;15.70;60.70;;;;;;6151760;23;19908;-71
2022/08/21 05:47:39;;;;;;;;;;;15.60;60.60;;;;;;6151948;23;19908;-71
2022/08/21 05:50:06;;;;;;;;;;;15.60;60.50;;;;;;6152223;23;19979;-72
2022/08/21 05:52:32;;;;;;;;;;;15.60;61.50;;;;;;6151880;23;19931;-72
2022/08/21 05:54:59;;;;;;;;;;;15.60;62.30;;;;;;6151390;23;19904;-73
2022/08/21 05:57:26;;;;;;;;;;;15.60;62.50;;;;;;6152615;23;19917;-72
2022/08/21 05:59:52;;;;;;;;;;;15.60;62.60;;;;;;6152257;23;19920;-71
2022/08/21 06:02:19;;;;;;;;;;;15.50;62.70;;;;;;6151318;23;20286;-71
2022/08/21 06:04:46;;;;;;;;;;;15.50;62.80;;;;;;6125018;23;19920;-73
2022/08/21 06:07:12;;;;;;;;;;;15.50;63.50;;;;;;6124762;23;20283;-72
2022/08/21 06:09:39;;;;;;;;;;;15.50;63.90;;;;;;6151606;23;19909;-72
2022/08/21 06:12:06;;;;;;;;;;;15.50;64.50;;;;;;6152083;23;19905;-74
2022/08/21 06:14:33;;;;;;;;;;;15.60;64.00;;;;;;6151295;23;19920;-74
2022/08/21 06:17:06;;;;;;;;;;;15.50;63.30;;;;;;6124557;23;19971;-73
2022/08/21 06:19:33;;;;;;;;;;;15.50;63.60;;;;;;6151441;23;19909;-72
2022/08/21 06:21:59;;;;;;;;;;;15.50;63.70;;;;;;6152120;23;19912;-71
2022/08/21 06:24:26;;;;;;;;;;;15.50;63.40;;;;;;6125244;23;19919;-73
2022/08/21 06:26:52;;;;;;;;;;;15.50;63.50;;;;;;6150916;23;19984;-72
2022/08/21 06:29:19;;;;;;;;;;;15.40;63.60;;;;;;6151794;23;19909;-72
2022/08/21 06:31:46;;;;;;;;;;;15.40;63.90;;;;;;6149295;23;19909;-71
2022/08/21 06:34:13;;;;;;;;;;;15.40;64.50;;;;;;6151444;23;19913;-70
2022/08/21 06:36:40;;;;;;;;;;;15.40;64.60;;;;;;6151826;23;19905;-71
2022/08/21 06:39:06;;;;;;;;;;;15.40;64.80;;;;;;6151224;23;20303;-70
2022/08/21 06:41:33;;;;;;;;;;;15.40;65.00;;;;;;6149000;23;19917;-71
2022/08/21 06:44:00;;;;;;;;;;;15.30;64.00;;;;;;6151444;23;19908;-71
2022/08/21 06:46:27;;;;;;;;;;;15.30;63.90;;;;;;6150906;23;19904;-72
2022/08/21 06:48:53;;;;;;;;;;;15.30;63.60;;;;;;6150947;23;19942;-72
2022/08/21 06:51:20;;;;;;;;;;;15.30;64.30;;;;;;6152149;23;19919;-72
2022/08/21 06:53:47;;;;;;;;;;;15.30;64.70;;;;;;6151590;23;19932;-72
2022/08/21 06:56:13;;;;;;;;;;;15.30;64.80;;;;;;6150824;23;19912;-69
2022/08/21 06:58:40;;;;;;;;;;;15.30;64.80;;;;;;6151242;23;19916;-70
2022/08/21 07:01:06;;;;;;;;;;;15.30;64.50;;;;;;6150734;23;19912;-70
2022/08/21 07:03:34;;;;;;;;;;;15.30;64.50;;;;;;6150922;23;19987;-71
2022/08/21 07:06:01;;;;;;;;;;;15.30;64.90;;;;;;6150269;23;19944;-70
2022/08/21 07:08:27;;;;;;;;;;;15.30;65.20;;;;;;6150535;23;20316;-70
2022/08/21 07:10:55;;;;;;;;;;;15.30;65.30;;;;;;6151635;23;19962;-71
2022/08/21 07:13:22;;;;;;;;;;;15.30;65.50;;;;;;6149796;23;19958;-70
2022/08/21 07:15:49;;;;;;;;;;;15.30;65.70;;;;;;6151364;23;20454;-71
2022/08/21 07:18:15;;;;;;;;;;;15.20;66.00;;;;;;6150190;23;19947;-71
2022/08/21 07:20:42;;;;;;;;;;;15.20;66.20;;;;;;6125302;23;19909;-71
2022/08/21 07:23:13;;;;;;;;;;;15.20;66.20;;;;;;6151028;23;19908;-71
2022/08/21 07:25:39;;;;;;;;;;;15.20;66.30;;;;;;6150933;23;19956;-72
2022/08/21 07:28:06;;;;;;;;;;;15.20;65.60;;;;;;6150906;23;19905;-69
2022/08/21 07:30:32;;;;;;;;;;;15.20;66.00;;;;;;6149202;23;19912;-69
2022/08/21 07:32:59;;;;;;;;;;;15.20;65.40;;;;;;6150462;23;19908;-72
2022/08/21 07:35:27;;;;;;;;;;;15.20;65.70;;;;;;6151387;23;19909;-72
2022/08/21 07:37:54;;;;;;;;;;;15.20;65.90;;;;;;6151659;23;19916;-74
2022/08/21 07:40:20;;;;;;;;;;;15.20;65.80;;;;;;6148543;23;19935;-71
2022/08/21 07:42:49;;;;;;;;;;;15.10;65.70;;;;;;6150505;23;19956;-70
2022/08/21 07:45:16;;;;;;;;;;;15.10;65.80;;;;;;6150564;23;19944;-70
2022/08/21 07:47:42;;;;;;;;;;;15.00;65.50;;;;;;6150691;23;19993;-70
2022/08/21 07:50:10;;;;;;;;;;;15.00;65.50;;;;;;6151039;23;19920;-70
2022/08/21 07:52:37;;;;;;;;;;;15.00;65.50;;;;;;6150888;23;19905;-69
2022/08/21 07:55:04;;;;;;;;;;;15.00;65.80;;;;;;6150430;23;19905;-71
2022/08/21 07:57:31;;;;;;;;;;;15.00;65.90;;;;;;6151016;23;20022;-71
2022/08/21 07:59:57;;;;;;;;;;;14.90;66.00;;;;;;6150908;23;19909;-72
2022/08/21 08:02:25;;;;;;;;;;;14.90;66.10;;;;;;6149207;23;19908;-72
2022/08/21 08:04:51;;;;;;;;;;;14.90;66.60;;;;;;6150296;23;19920;-73
2022/08/21 08:07:18;;;;;;;;;;;14.80;66.40;;;;;;6150919;23;19909;-72
2022/08/21 08:09:45;;;;;;;;;;;14.80;66.40;;;;;;6149956;23;19967;-71
2022/08/21 08:12:11;;;;;;;;;;;14.80;66.50;;;;;;6150104;23;19931;-72
2022/08/21 08:14:38;;;;;;;;;;;14.80;66.40;;;;;;6149664;23;20328;-72
2022/08/21 08:17:05;;;;;;;;;;;14.80;66.50;;;;;;6151181;23;19932;-72
2022/08/21 08:19:31;;;;;;;;;;;14.80;66.50;;;;;;6150761;23;19975;-71
2022/08/21 08:21:58;;;;;;;;;;;14.80;66.70;;;;;;6151224;23;19914;-74
2022/08/21 08:24:24;;;;;;;;;;;14.80;66.80;;;;;;6150748;23;19971;-74
2022/08/21 08:26:51;;;;;;;;;;;14.80;66.80;;;;;;6151280;23;19956;-72
2022/08/21 08:29:17;;;;;;;;;;;14.80;67.00;;;;;;6151276;23;19905;-72
2022/08/21 08:31:44;;;;;;;;;;;14.80;67.20;;;;;;6151054;23;20343;-72
2022/08/21 08:34:11;;;;;;;;;;;14.70;67.40;;;;;;6150766;23;19908;-72
2022/08/21 08:36:37;;;;;;;;;;;14.70;67.50;;;;;;6150800;23;19987;-72
2022/08/21 08:39:04;;;;;;;;;;;14.70;67.70;;;;;;6125022;23;19905;-72
2022/08/21 08:41:31;;;;;;;;;;;14.70;67.90;;;;;;6148650;23;20328;-72
2022/08/21 08:44:01;;;;;;;;;;;14.70;68.30;;;;;;6124971;23;20110;-72
2022/08/21 08:46:36;;;;;;;;;;;14.70;68.50;;;;;;6125241;23;19908;-72
2022/08/21 08:49:28;;;;;;;;;;;14.70;68.50;;;;;;6101040;23;20063;-70
2022/08/21 08:51:55;;;;;;;;;;;14.60;68.60;;;;;;6145498;23;19916;-70
2022/08/21 08:54:25;;;;;;;;;;;14.70;68.90;;;;;;6150900;23;19932;-71
2022/08/21 08:56:54;;;;;;;;;;;14.60;68.90;;;;;;6100998;23;19958;-71
2022/08/21 08:59:27;;;;;;;;;;;14.60;68.90;;;;;;6148866;23;19908;-71
2022/08/21 09:01:53;;;;;;;;;;;14.60;68.90;;;;;;6124702;23;19979;-71
2022/08/21 09:04:22;;;;;;;;;;;14.50;69.00;;;;;;6124396;23;19920;-70
2022/08/21 09:07:07;;;;;;;;;;;14.60;69.00;;;;;;6124618;23;19915;-71
2022/08/21 09:10:03;;;;;;;;;;;14.50;69.10;;;;;;6151083;23;19913;-71
2022/08/21 09:13:07;;;;;;;;;;;14.50;68.90;;;;;;6099742;23;19954;-68
2022/08/21 09:15:51;;;;;;;;;;;14.50;68.20;;;;;;6033181;23;19994;-71
2022/08/21 09:18:27;;;;;;;;;;;14.50;68.40;;;;;;6032863;23;19918;-72
2022/08/21 09:21:01;;;;;;;;;;;14.50;68.30;;;;;;6111278;23;19956;-71
2022/08/21 09:23:31;;;;;;;;;;;14.50;68.10;;;;;;6152503;23;20261;-73
2022/08/21 09:26:00;;;;;;;;;;;14.50;68.10;;;;;;6153251;23;20252;-73
2022/08/21 09:28:27;;;;;;;;;;;14.40;68.30;;;;;;6153478;23;19913;-74
2022/08/21 09:30:55;;;;;;;;;;;14.40;68.40;;;;;;6125045;23;20343;-73
2022/08/21 09:33:22;;;;;;;;;;;14.40;68.70;;;;;;6126865;23;19940;-71
2022/08/21 09:35:52;;;;;;;;;;;14.40;68.60;;;;;;6152378;23;19912;-71
2022/08/21 09:38:27;;;;;;;;;;;14.40;68.80;;;;;;6151997;23;19917;-72
